createdAt,value
2022-10-18T00:02:11.259Z,8.00
2022-10-18T00:04:38.289Z,8.07
2022-10-18T00:07:07.326Z,8.10
2022-10-18T00:09:34.515Z,8.06
2022-10-18T00:12:03.661Z,8.00
2022-10-18T00:14:31.850Z,8.00
2022-10-18T00:16:58.728Z,8.10
2022-10-18T00:19:28.487Z,8.06
2022-10-18T00:21:59.566Z,8.02
2022-10-18T00:24:26.327Z,7.91
2022-10-18T00:26:53.381Z,7.91
2022-10-18T00:29:20.759Z,7.90
2022-10-18T00:31:49.321Z,7.91
2022-10-18T00:34:17.761Z,7.88
2022-10-18T00:36:45.445Z,7.90
2022-10-18T00:39:19.114Z,7.97
2022-10-18T00:41:46.887Z,8.19
2022-10-18T00:44:51.338Z,8.22
2022-10-18T00:47:20.313Z,8.09
2022-10-18T00:49:51.557Z,7.91
2022-10-18T00:52:21.700Z,7.83
2022-10-18T00:54:51.182Z,7.63
2022-10-18T00:57:19.792Z,7.87
2022-10-18T00:59:47.429Z,7.93
2022-10-18T01:02:15.190Z,7.94
2022-10-18T01:04:44.134Z,7.98
2022-10-18T01:07:20.757Z,8.07
2022-10-18T01:09:59.906Z,7.94
2022-10-18T01:12:37.110Z,7.89
2022-10-18T01:15:10.872Z,7.85
2022-10-18T01:17:45.671Z,7.78
2022-10-18T01:20:38.106Z,7.73
2022-10-18T01:23:09.188Z,7.63
2022-10-18T01:25:43.311Z,7.65
2022-10-18T01:28:36.647Z,7.63
2022-10-18T01:31:10.555Z,7.62
2022-10-18T01:33:41.463Z,7.59
2022-10-18T01:36:15.619Z,7.54
2022-10-18T01:38:44.689Z,7.56
2022-10-18T01:41:15.840Z,7.53
2022-10-18T01:43:45.352Z,7.49
2022-10-18T01:46:19.222Z,7.44
2022-10-18T01:48:46.707Z,7.39
2022-10-18T01:51:15.992Z,7.36
2022-10-18T01:53:42.751Z,7.32
2022-10-18T01:56:25.379Z,7.34
2022-10-18T01:59:02.442Z,7.37
2022-10-18T02:01:38.611Z,7.38
2022-10-18T02:04:13.612Z,7.33
2022-10-18T02:06:45.864Z,7.30
2022-10-18T02:09:19.291Z,7.29
2022-10-18T02:11:48.804Z,7.35
2022-10-18T02:14:17.690Z,7.50
2022-10-18T02:16:50.637Z,7.55
2022-10-18T02:19:22.888Z,7.63
2022-10-18T02:21:53.330Z,7.58
2022-10-18T02:24:23.691Z,7.42
2022-10-18T02:26:50.629Z,7.45
2022-10-18T02:29:17.679Z,7.45
2022-10-18T02:31:49.414Z,7.48
2022-10-18T02:34:21.666Z,7.55
2022-10-18T02:36:51.427Z,7.61
2022-10-18T02:39:20.834Z,7.60
2022-10-18T02:41:47.655Z,7.46
2022-10-18T02:44:15.122Z,7.53
2022-10-18T02:46:42.238Z,7.49
2022-10-18T02:49:10.510Z,7.45
2022-10-18T02:51:37.632Z,7.37
2022-10-18T02:54:04.808Z,7.33
2022-10-18T02:56:31.915Z,7.39
2022-10-18T02:59:00.126Z,7.41
2022-10-18T03:01:27.144Z,7.41
2022-10-18T03:03:54.091Z,7.35
2022-10-18T03:06:22.239Z,7.23
2022-10-18T03:08:50.173Z,7.27
2022-10-18T03:11:17.003Z,7.26
2022-10-18T03:13:45.085Z,7.27
2022-10-18T03:16:12.247Z,7.22
2022-10-18T03:18:40.312Z,7.15
2022-10-18T03:21:08.051Z,7.14
2022-10-18T03:23:36.507Z,7.08
2022-10-18T03:26:03.853Z,7.09
2022-10-18T03:28:31.012Z,7.04
2022-10-18T03:31:00.525Z,7.01
2022-10-18T03:33:27.456Z,6.98
2022-10-18T03:35:54.403Z,6.93
2022-10-18T03:38:21.176Z,7.01
2022-10-18T03:40:51.534Z,7.09
2022-10-18T03:43:18.390Z,7.02
2022-10-18T03:45:45.545Z,6.98
2022-10-18T03:48:12.467Z,6.75
2022-10-18T03:50:39.379Z,6.77
2022-10-18T03:53:06.120Z,6.76
2022-10-18T03:55:33.055Z,6.87
2022-10-18T03:58:01.352Z,6.89
2022-10-18T04:00:28.347Z,6.90
2022-10-18T04:02:56.094Z,6.91
2022-10-18T04:05:23.469Z,6.87
2022-10-18T04:07:51.382Z,6.83
2022-10-18T04:10:18.112Z,6.92
2022-10-18T04:12:45.066Z,6.95
2022-10-18T04:15:13.667Z,7.01
2022-10-18T04:17:40.487Z,6.94
2022-10-18T04:20:08.131Z,6.91
2022-10-18T04:22:35.127Z,6.94
2022-10-18T04:25:01.974Z,6.91
2022-10-18T04:27:29.221Z,6.88
2022-10-18T04:29:56.152Z,6.82
2022-10-18T04:32:24.886Z,6.81
2022-10-18T04:34:51.603Z,6.83
2022-10-18T04:37:18.572Z,6.82
2022-10-18T04:39:47.480Z,6.83
2022-10-18T04:42:17.067Z,6.83
2022-10-18T04:44:44.092Z,6.82
2022-10-18T04:47:11.901Z,6.74
2022-10-18T04:49:40.308Z,6.70
2022-10-18T04:52:07.556Z,6.80
2022-10-18T04:54:34.862Z,6.91
2022-10-18T04:57:01.873Z,6.84
2022-10-18T04:59:29.871Z,6.89
2022-10-18T05:01:57.430Z,7.00
2022-10-18T05:04:25.385Z,7.04
2022-10-18T05:06:53.698Z,7.20
2022-10-18T05:09:20.826Z,7.22
2022-10-18T05:11:47.671Z,7.27
2022-10-18T05:14:14.604Z,7.27
2022-10-18T05:16:42.075Z,7.21
2022-10-18T05:19:09.934Z,7.20
2022-10-18T05:21:36.939Z,7.14
2022-10-18T05:24:08.619Z,7.10
2022-10-18T05:26:37.050Z,7.07
2022-10-18T05:29:05.064Z,7.00
2022-10-18T05:31:32.082Z,6.90
2022-10-18T05:33:58.966Z,6.83
2022-10-18T05:36:25.918Z,6.78
2022-10-18T05:38:52.998Z,6.58
2022-10-18T05:41:24.001Z,6.54
2022-10-18T05:43:51.150Z,6.59
2022-10-18T05:46:19.107Z,6.64
2022-10-18T05:48:50.200Z,6.64
2022-10-18T05:51:17.583Z,6.64
2022-10-18T05:53:44.404Z,6.64
2022-10-18T05:56:13.890Z,6.65
2022-10-18T05:58:43.199Z,6.67
2022-10-18T06:01:12.476Z,6.70
2022-10-18T06:03:45.844Z,6.70
2022-10-18T06:06:16.337Z,6.47
2022-10-18T06:08:44.429Z,6.51
2022-10-18T06:11:13.875Z,6.55
2022-10-18T06:13:46.318Z,6.54
2022-10-18T06:16:17.881Z,6.63
2022-10-18T06:18:48.102Z,6.74
2022-10-18T06:21:17.842Z,6.77
2022-10-18T06:23:50.701Z,6.88
2022-10-18T06:26:22.262Z,6.95
2022-10-18T06:28:51.516Z,6.92
2022-10-18T06:31:19.770Z,6.87
2022-10-18T06:33:47.120Z,6.84
2022-10-18T06:36:17.435Z,6.77
2022-10-18T06:38:45.011Z,6.78
2022-10-18T06:41:12.531Z,6.83
2022-10-18T06:43:39.538Z,6.85
2022-10-18T06:46:08.971Z,6.85
2022-10-18T06:48:38.919Z,6.88
2022-10-18T06:51:07.298Z,6.91
2022-10-18T06:53:40.737Z,7.00
2022-10-18T06:56:12.670Z,7.23
2022-10-18T06:58:40.157Z,7.40
2022-10-18T07:01:11.899Z,7.74
2022-10-18T07:03:39.861Z,8.15
2022-10-18T07:06:09.708Z,8.52
2022-10-18T07:08:40.798Z,8.82
2022-10-18T07:11:09.080Z,9.15
2022-10-18T07:13:37.259Z,9.35
2022-10-18T07:16:05.663Z,9.67
2022-10-18T07:18:39.951Z,9.92
2022-10-18T07:21:12.224Z,10.15
2022-10-18T07:23:41.198Z,10.39
2022-10-18T07:26:15.923Z,10.62
2022-10-18T07:28:46.406Z,10.89
2022-10-18T07:31:13.607Z,11.06
2022-10-18T07:33:42.302Z,11.29
2022-10-18T07:36:11.737Z,11.45
2022-10-18T07:38:39.653Z,11.66
2022-10-18T07:41:09.421Z,11.90
2022-10-18T07:43:36.986Z,12.06
2022-10-18T07:46:07.018Z,12.24
2022-10-18T07:48:35.215Z,12.39
2022-10-18T07:51:04.771Z,12.53
2022-10-18T07:53:32.890Z,12.67
2022-10-18T07:56:03.447Z,12.84
2022-10-18T07:58:33.788Z,12.99
2022-10-18T08:01:03.650Z,13.13
2022-10-18T08:03:30.970Z,13.27
2022-10-18T08:05:59.015Z,13.36
2022-10-18T08:08:28.910Z,13.47
2022-10-18T08:11:03.782Z,13.57
2022-10-18T08:13:30.707Z,13.64
2022-10-18T08:16:01.617Z,13.79
2022-10-18T08:18:28.476Z,13.96
2022-10-18T08:20:55.951Z,14.11
2022-10-18T08:23:23.073Z,14.20
2022-10-18T08:25:51.498Z,14.25
2022-10-18T08:28:19.412Z,14.37
2022-10-18T08:30:46.242Z,14.47
2022-10-18T08:33:14.524Z,14.59
2022-10-18T08:35:41.363Z,14.69
2022-10-18T08:38:09.188Z,14.78
2022-10-18T08:40:43.749Z,14.84
2022-10-18T08:43:22.699Z,14.91
2022-10-18T08:45:50.948Z,14.99
2022-10-18T08:48:21.385Z,15.05
2022-10-18T08:50:49.874Z,15.13
2022-10-18T08:53:23.442Z,15.23
2022-10-18T08:55:54.750Z,15.35
2022-10-18T08:58:25.410Z,15.43
2022-10-18T09:01:07.660Z,15.55
2022-10-18T09:03:57.454Z,15.68
2022-10-18T09:06:30.759Z,15.63
2022-10-18T09:09:18.075Z,15.71
2022-10-18T09:11:58.111Z,15.69
2022-10-18T09:14:52.687Z,15.80
2022-10-18T09:17:29.899Z,15.90
2022-10-18T09:20:17.000Z,15.90
2022-10-18T09:22:53.559Z,15.96
2022-10-18T09:25:22.375Z,15.92
2022-10-18T09:27:53.971Z,16.11
2022-10-18T09:30:49.289Z,16.25
2022-10-18T09:33:30.056Z,16.35
2022-10-18T09:35:58.923Z,16.37
2022-10-18T09:38:32.555Z,16.51
2022-10-18T09:41:04.641Z,16.65
2022-10-18T09:43:44.941Z,16.79
2022-10-18T09:46:18.109Z,16.82
2022-10-18T09:48:51.522Z,17.02
2022-10-18T09:51:23.960Z,17.08
2022-10-18T09:54:04.430Z,17.21
2022-10-18T09:56:41.894Z,17.33
2022-10-18T09:59:30.268Z,17.47
2022-10-18T10:01:58.796Z,17.55
2022-10-18T10:04:25.828Z,17.61
2022-10-18T10:06:55.553Z,17.67
2022-10-18T10:09:27.267Z,17.73
2022-10-18T10:11:54.270Z,17.77
2022-10-18T10:14:23.006Z,17.89
2022-10-18T10:16:55.056Z,18.03
2022-10-18T10:19:30.566Z,18.13
2022-10-18T10:22:03.795Z,18.16
2022-10-18T10:24:42.158Z,18.14
2022-10-18T10:27:18.932Z,18.17
2022-10-18T10:29:55.112Z,18.04
2022-10-18T10:34:59.183Z,18.31
2022-10-18T10:37:32.256Z,18.37
2022-10-18T10:40:18.190Z,18.46
2022-10-18T10:43:08.815Z,18.54
2022-10-18T10:46:00.158Z,18.49
2022-10-18T10:48:32.453Z,18.49
2022-10-18T10:51:05.024Z,18.51
2022-10-18T10:53:41.208Z,18.36
2022-10-18T10:56:21.734Z,18.39
2022-10-18T10:58:49.003Z,18.51
2022-10-18T11:01:22.516Z,18.61
2022-10-18T11:03:51.553Z,18.68
2022-10-18T11:06:50.196Z,18.75
2022-10-18T11:09:28.541Z,18.84
2022-10-18T11:12:16.619Z,18.93
2022-10-18T11:14:50.337Z,18.79
2022-10-18T11:17:28.127Z,18.70
2022-10-18T11:20:18.737Z,18.81
2022-10-18T11:22:58.039Z,18.83
2022-10-18T11:25:29.498Z,18.91
2022-10-18T11:28:03.213Z,18.96
2022-10-18T11:30:50.179Z,18.95
2022-10-18T11:33:50.329Z,19.05
2022-10-18T11:39:02.982Z,19.16
2022-10-18T11:41:31.759Z,19.20
2022-10-18T11:44:03.572Z,19.23
2022-10-18T11:46:45.257Z,19.23
2022-10-18T11:49:29.628Z,19.31
2022-10-18T11:52:09.175Z,19.34
2022-10-18T11:55:05.349Z,19.31
2022-10-18T11:57:46.464Z,19.36
2022-10-18T12:00:29.819Z,19.45
2022-10-18T12:03:41.933Z,19.39
2022-10-18T12:06:15.313Z,19.50
2022-10-18T12:08:47.083Z,19.55
2022-10-18T12:11:20.460Z,19.58
2022-10-18T12:13:51.115Z,19.56
2022-10-18T12:16:38.961Z,19.53
2022-10-18T12:19:22.009Z,19.36
2022-10-18T12:21:53.825Z,19.18
2022-10-18T12:24:24.802Z,19.39
2022-10-18T12:26:59.800Z,19.37
2022-10-18T12:29:32.900Z,19.44
2022-10-18T12:32:03.484Z,19.56
2022-10-18T12:34:35.940Z,19.63
2022-10-18T12:37:40.383Z,19.69
2022-10-18T12:40:18.242Z,19.74
2022-10-18T12:42:53.137Z,19.75
2022-10-18T12:45:30.079Z,19.71
2022-10-18T12:48:02.835Z,19.71
2022-10-18T12:50:32.831Z,19.68
2022-10-18T12:53:16.843Z,19.58
2022-10-18T12:55:45.277Z,19.53
2022-10-18T12:58:41.706Z,19.47
2022-10-18T13:01:08.801Z,19.40
2022-10-18T13:03:55.712Z,19.42
2022-10-18T13:06:25.082Z,19.47
2022-10-18T13:09:18.538Z,19.51
2022-10-18T13:11:45.582Z,19.57
2022-10-18T13:15:12.634Z,19.59
2022-10-18T13:17:50.768Z,19.56
2022-10-18T13:20:27.233Z,19.46
2022-10-18T13:23:10.964Z,19.43
2022-10-18T13:25:51.847Z,19.37
2022-10-18T13:28:30.830Z,19.31
2022-10-18T13:31:04.065Z,19.26
2022-10-18T13:33:34.248Z,19.22
2022-10-18T13:36:04.764Z,19.22
2022-10-18T13:38:44.101Z,19.12
2022-10-18T13:41:14.527Z,19.16
2022-10-18T13:44:20.040Z,19.14
2022-10-18T13:47:15.264Z,19.13
2022-10-18T13:49:59.599Z,19.12
2022-10-18T13:52:37.828Z,19.08
2022-10-18T13:55:25.884Z,19.02
2022-10-18T13:58:06.456Z,18.89
2022-10-18T14:01:02.391Z,18.73
2022-10-18T14:03:58.063Z,18.61
2022-10-18T14:06:28.957Z,18.51
2022-10-18T14:09:09.347Z,18.41
2022-10-18T14:11:50.284Z,18.35
2022-10-18T14:14:24.223Z,18.27
2022-10-18T14:17:03.136Z,18.23
2022-10-18T14:19:36.941Z,18.21
2022-10-18T14:22:11.576Z,18.11
2022-10-18T14:24:44.455Z,18.03
2022-10-18T14:27:18.224Z,17.97
2022-10-18T14:29:45.654Z,17.88
2022-10-18T14:32:23.944Z,17.80
2022-10-18T14:34:53.887Z,17.73
2022-10-18T14:37:28.046Z,17.67
2022-10-18T14:39:55.232Z,17.64
2022-10-18T14:42:23.950Z,17.60
2022-10-18T14:44:54.423Z,17.55
2022-10-18T14:47:24.839Z,17.49
2022-10-18T14:49:55.572Z,17.41
2022-10-18T14:52:26.632Z,17.32
2022-10-18T14:54:55.680Z,17.25
2022-10-18T14:57:25.177Z,17.18
2022-10-18T14:59:54.883Z,16.91
2022-10-18T15:02:23.852Z,16.85
2022-10-18T15:05:07.480Z,16.80
2022-10-18T15:07:35.338Z,16.75
2022-10-18T15:10:05.595Z,16.66
2022-10-18T15:12:40.886Z,16.56
2022-10-18T15:15:22.380Z,16.49
2022-10-18T15:17:49.917Z,16.41
2022-10-18T15:20:26.975Z,16.24
2022-10-18T15:23:15.244Z,16.18
2022-10-18T15:25:42.352Z,16.07
2022-10-18T15:28:24.585Z,15.96
2022-10-18T15:30:51.483Z,15.86
2022-10-18T15:33:22.458Z,15.75
2022-10-18T15:35:52.693Z,15.63
2022-10-18T15:38:26.842Z,15.48
2022-10-18T15:40:53.917Z,15.37
2022-10-18T15:43:39.089Z,15.21
2022-10-18T15:46:07.443Z,15.16
2022-10-18T15:48:38.210Z,15.21
2022-10-18T15:51:08.345Z,14.88
2022-10-18T15:53:43.230Z,14.51
2022-10-18T15:56:28.128Z,14.26
2022-10-18T15:58:57.945Z,14.26
2022-10-18T16:01:34.628Z,13.87
2022-10-18T16:04:07.210Z,13.95
2022-10-18T16:06:35.516Z,13.78
2022-10-18T16:09:02.399Z,13.56
2022-10-18T16:11:29.346Z,13.34
2022-10-18T16:13:58.008Z,13.16
2022-10-18T16:16:28.483Z,12.92
2022-10-18T16:18:57.044Z,12.92
2022-10-18T16:21:26.495Z,12.88
2022-10-18T16:23:55.176Z,12.72
2022-10-18T16:26:23.490Z,12.60
2022-10-18T16:28:51.500Z,12.47
2022-10-18T16:31:21.681Z,12.43
2022-10-18T16:33:56.533Z,12.38
2022-10-18T16:36:27.363Z,12.48
2022-10-18T16:39:05.748Z,12.43
2022-10-18T16:41:34.852Z,12.43
2022-10-18T16:44:02.007Z,12.28
2022-10-18T16:46:33.408Z,12.05
2022-10-18T16:49:01.155Z,11.95
2022-10-18T16:51:30.205Z,11.86
2022-10-18T16:53:58.384Z,11.82
2022-10-18T16:56:32.505Z,11.83
2022-10-18T16:59:00.351Z,11.75
2022-10-18T17:01:30.981Z,11.72
2022-10-18T17:03:57.930Z,11.61
2022-10-18T17:06:27.149Z,11.65
2022-10-18T17:08:56.577Z,11.68
2022-10-18T17:11:27.521Z,11.62
2022-10-18T17:13:54.997Z,11.61
2022-10-18T17:16:24.720Z,11.71
2022-10-18T17:18:51.634Z,11.75
2022-10-18T17:21:18.578Z,11.79
2022-10-18T17:23:45.730Z,11.81
2022-10-18T17:26:27.651Z,11.93
2022-10-18T17:29:00.744Z,11.83
2022-10-18T17:31:27.675Z,11.65
2022-10-18T17:33:55.687Z,11.55
2022-10-18T17:36:22.674Z,11.55
2022-10-18T17:38:50.835Z,11.55
2022-10-18T17:41:18.461Z,11.45
2022-10-18T17:43:47.730Z,11.38
2022-10-18T17:46:16.688Z,11.30
2022-10-18T17:48:44.070Z,11.17
2022-10-18T17:51:12.437Z,11.20
2022-10-18T17:53:39.701Z,11.34
2022-10-18T17:56:09.605Z,11.40
2022-10-18T17:58:36.370Z,11.34
2022-10-18T18:01:11.679Z,11.34
2022-10-18T18:03:41.379Z,11.33
2022-10-18T18:06:16.750Z,11.30
2022-10-18T18:08:43.277Z,11.24
2022-10-18T18:11:10.248Z,11.16
2022-10-18T18:13:37.068Z,11.09
2022-10-18T18:16:17.296Z,11.13
2022-10-18T18:18:48.915Z,11.35
2022-10-18T18:21:16.210Z,11.27
2022-10-18T18:23:43.401Z,11.08
2022-10-18T18:26:12.551Z,10.98
2022-10-18T18:28:39.453Z,10.88
2022-10-18T18:31:07.265Z,10.80
2022-10-18T18:33:34.155Z,10.75
2022-10-18T18:36:05.441Z,10.79
2022-10-18T18:38:34.742Z,10.71
2022-10-18T18:41:11.119Z,10.72
2022-10-18T18:43:39.835Z,10.68
2022-10-18T18:46:09.019Z,10.60
2022-10-18T18:48:36.997Z,10.83
2022-10-18T18:51:11.126Z,10.93
2022-10-18T18:53:39.140Z,10.83
2022-10-18T18:56:08.449Z,10.94
2022-10-18T18:58:37.755Z,10.96
2022-10-18T19:01:09.571Z,11.02
2022-10-18T19:03:41.246Z,11.06
2022-10-18T19:06:11.453Z,10.93
2022-10-18T19:08:41.179Z,10.83
2022-10-18T19:11:15.207Z,10.76
2022-10-18T19:13:43.667Z,10.76
2022-10-18T19:16:18.760Z,10.70
2022-10-18T19:18:51.295Z,10.66
2022-10-18T19:21:20.124Z,10.63
2022-10-18T19:23:47.029Z,10.51
2022-10-18T19:26:22.994Z,10.37
2022-10-18T19:28:49.958Z,10.35
2022-10-18T19:31:16.887Z,10.32
2022-10-18T19:33:55.660Z,10.32
2022-10-18T19:36:28.503Z,10.25
2022-10-18T19:38:56.835Z,10.35
2022-10-18T19:43:58.724Z,10.42
2022-10-18T19:46:28.951Z,10.34
2022-10-18T19:48:56.149Z,10.49
2022-10-18T19:51:28.461Z,10.47
2022-10-18T19:53:58.808Z,10.35
2022-10-18T19:56:28.473Z,10.19
2022-10-18T19:58:58.592Z,10.04
2022-10-18T20:01:28.505Z,10.12
2022-10-18T20:03:55.830Z,10.03
2022-10-18T20:06:27.513Z,9.95
2022-10-18T20:08:55.482Z,10.03
2022-10-18T20:11:28.206Z,10.11
2022-10-18T20:13:56.260Z,10.00
2022-10-18T20:16:32.091Z,9.93
2022-10-18T20:19:00.736Z,9.64
2022-10-18T20:21:29.794Z,9.78
2022-10-18T20:23:57.020Z,9.72
2022-10-18T20:26:27.839Z,9.54
2022-10-18T20:28:58.317Z,9.75
2022-10-18T20:31:29.130Z,9.78
2022-10-18T20:33:57.812Z,9.76
2022-10-18T20:36:30.781Z,9.68
2022-10-18T20:38:58.781Z,9.63
2022-10-18T20:41:29.261Z,9.60
2022-10-18T20:43:58.999Z,9.60
2022-10-18T20:46:26.944Z,9.57
2022-10-18T20:48:55.498Z,9.52
2022-10-18T20:51:24.026Z,9.55
2022-10-18T20:53:51.626Z,9.73
2022-10-18T20:56:20.894Z,9.79
2022-10-18T20:58:50.582Z,9.65
2022-10-18T21:01:19.490Z,9.59
2022-10-18T21:03:49.117Z,9.59
2022-10-18T21:06:18.245Z,9.60
2022-10-18T21:08:46.536Z,9.68
2022-10-18T21:11:14.372Z,9.70
2022-10-18T21:13:42.869Z,9.75
2022-10-18T21:16:11.696Z,9.61
2022-10-18T21:18:38.725Z,9.63
2022-10-18T21:21:11.119Z,9.53
2022-10-18T21:23:38.603Z,9.67
2022-10-18T21:26:06.079Z,9.75
2022-10-18T21:28:35.495Z,9.74
2022-10-18T21:31:16.703Z,9.61
2022-10-18T21:33:45.014Z,9.59
2022-10-18T21:36:13.351Z,9.52
2022-10-18T21:38:43.815Z,9.40
2022-10-18T21:41:12.042Z,9.46
2022-10-18T21:43:40.462Z,9.46
2022-10-18T21:46:13.483Z,9.58
2022-10-18T21:48:45.787Z,9.61
2022-10-18T21:51:18.033Z,9.63
2022-10-18T21:53:48.056Z,9.61
2022-10-18T21:56:21.346Z,9.45
2022-10-18T21:58:49.655Z,9.49
2022-10-18T22:01:18.536Z,9.56
2022-10-18T22:03:49.644Z,9.58
2022-10-18T22:06:21.358Z,9.52
2022-10-18T22:08:51.389Z,9.52
2022-10-18T22:11:23.173Z,9.49
2022-10-18T22:13:50.000Z,9.47
2022-10-18T22:16:18.593Z,9.43
2022-10-18T22:18:48.196Z,9.48
2022-10-18T22:21:18.947Z,9.78
2022-10-18T22:23:48.349Z,9.86
2022-10-18T22:26:18.647Z,9.91
2022-10-18T22:28:53.091Z,9.85
2022-10-18T22:31:31.771Z,9.73
2022-10-18T22:34:03.074Z,9.61
2022-10-18T22:36:31.006Z,9.53
2022-10-18T22:39:01.142Z,9.45
2022-10-18T22:41:30.413Z,9.39
2022-10-18T22:44:01.108Z,9.32
2022-10-18T22:46:32.498Z,9.29
2022-10-18T22:49:00.935Z,9.29
2022-10-18T22:51:31.389Z,9.30
2022-10-18T22:53:58.660Z,9.34
2022-10-18T22:56:26.309Z,9.34
2022-10-18T22:58:53.164Z,9.25
2022-10-18T23:01:22.152Z,9.25
2022-10-18T23:03:54.614Z,9.20
2022-10-18T23:06:25.124Z,9.13
2022-10-18T23:08:54.267Z,9.01
2022-10-18T23:11:23.063Z,9.13
2022-10-18T23:13:52.603Z,9.26
2022-10-18T23:16:20.584Z,9.28
2022-10-18T23:18:49.807Z,9.34
2022-10-18T23:21:16.620Z,9.35
2022-10-18T23:23:47.087Z,9.25
2022-10-18T23:26:17.222Z,9.16
2022-10-18T23:28:47.535Z,9.28
2022-10-18T23:31:16.584Z,9.34
2022-10-18T23:33:45.661Z,9.36
2022-10-18T23:36:12.849Z,9.31
2022-10-18T23:38:45.529Z,9.34
2022-10-18T23:41:14.359Z,9.29
2022-10-18T23:43:42.050Z,9.32
2022-10-18T23:46:13.742Z,9.27
2022-10-18T23:48:40.884Z,9.23
2022-10-18T23:51:11.089Z,9.18
2022-10-18T23:53:38.539Z,9.18
2022-10-18T23:56:10.508Z,9.14
2022-10-18T23:58:37.997Z,9.04
